sensor_id;sensor_type;location;lat;lon;timestamp;pressure;altitude;pressure_sealevel;temperature;humidity
20630;BME280;17386;43.846;25.950;2022-07-03T00:01:18;101430.72;;;27.18;52.10
20630;BME280;17386;43.846;25.950;2022-07-03T00:03:45;101419.38;;;27.13;51.78
20630;BME280;17386;43.846;25.950;2022-07-03T00:06:12;101415.03;;;27.10;52.18
20630;BME280;17386;43.846;25.950;2022-07-03T00:08:39;101420.66;;;27.09;52.05
20630;BME280;17386;43.846;25.950;2022-07-03T00:11:06;101421.50;;;27.09;52.37
20630;BME280;17386;43.846;25.950;2022-07-03T00:13:33;101412.63;;;27.07;52.09
20630;BME280;17386;43.846;25.950;2022-07-03T00:16:00;101412.47;;;27.09;52.45
20630;BME280;17386;43.846;25.950;2022-07-03T00:18:25;101417.75;;;27.10;52.35
20630;BME280;17386;43.846;25.950;2022-07-03T00:21:11;101420.22;;;27.13;52.08
20630;BME280;17386;43.846;25.950;2022-07-03T00:23:44;101414.06;;;27.11;51.74
20630;BME280;17386;43.846;25.950;2022-07-03T00:26:13;101414.75;;;27.13;51.63
20630;BME280;17386;43.846;25.950;2022-07-03T00:28:41;101419.22;;;27.14;51.23
20630;BME280;17386;43.846;25.950;2022-07-03T00:31:10;101408.44;;;27.13;51.32
20630;BME280;17386;43.846;25.950;2022-07-03T00:33:37;101410.31;;;27.12;51.16
20630;BME280;17386;43.846;25.950;2022-07-03T00:36:04;101414.47;;;27.16;50.89
20630;BME280;17386;43.846;25.950;2022-07-03T00:38:32;101406.44;;;27.15;50.62
20630;BME280;17386;43.846;25.950;2022-07-03T00:41:02;101404.41;;;27.17;50.24
20630;BME280;17386;43.846;25.950;2022-07-03T00:43:30;101399.81;;;27.17;50.12
20630;BME280;17386;43.846;25.950;2022-07-03T00:46:08;101402.41;;;27.19;49.15
20630;BME280;17386;43.846;25.950;2022-07-03T00:48:37;101393.66;;;27.15;49.54
20630;BME280;17386;43.846;25.950;2022-07-03T00:51:06;101386.06;;;27.09;49.13
20630;BME280;17386;43.846;25.950;2022-07-03T00:53:33;101401.28;;;27.12;48.87
20630;BME280;17386;43.846;25.950;2022-07-03T00:56:03;101397.69;;;27.11;48.61
20630;BME280;17386;43.846;25.950;2022-07-03T00:58:31;101398.56;;;27.12;48.30
20630;BME280;17386;43.846;25.950;2022-07-03T01:01:00;101393.09;;;27.12;48.21
20630;BME280;17386;43.846;25.950;2022-07-03T01:03:27;101392.25;;;27.11;48.09
20630;BME280;17386;43.846;25.950;2022-07-03T01:05:55;101396.25;;;27.07;47.71
20630;BME280;17386;43.846;25.950;2022-07-03T01:14:37;101386.06;;;27.09;48.29
20630;BME280;17386;43.846;25.950;2022-07-03T01:17:26;101386.06;;;27.09;47.88
20630;BME280;17386;43.846;25.950;2022-07-03T01:20:10;101380.75;;;27.08;47.87
20630;BME280;17386;43.846;25.950;2022-07-03T01:22:49;101383.47;;;27.08;47.57
20630;BME280;17386;43.846;25.950;2022-07-03T01:28:18;101390.50;;;27.00;47.52
20630;BME280;17386;43.846;25.950;2022-07-03T01:30:52;101386.63;;;26.93;47.80
20630;BME280;17386;43.846;25.950;2022-07-03T01:33:23;101386.78;;;26.92;48.10
20630;BME280;17386;43.846;25.950;2022-07-03T01:36:09;101377.88;;;26.90;48.04
20630;BME280;17386;43.846;25.950;2022-07-03T01:38:36;101390.63;;;26.89;48.21
20630;BME280;17386;43.846;25.950;2022-07-03T01:41:08;101382.75;;;26.86;48.12
20630;BME280;17386;43.846;25.950;2022-07-03T01:43:48;101388.47;;;26.83;48.50
20630;BME280;17386;43.846;25.950;2022-07-03T01:46:17;101387.63;;;26.83;48.90
20630;BME280;17386;43.846;25.950;2022-07-03T01:48:43;101394.53;;;26.77;49.08
20630;BME280;17386;43.846;25.950;2022-07-03T01:51:14;101388.22;;;26.67;49.04
20630;BME280;17386;43.846;25.950;2022-07-03T01:53:44;101393.53;;;26.59;49.92
20630;BME280;17386;43.846;25.950;2022-07-03T01:56:11;101398.53;;;26.54;49.88
20630;BME280;17386;43.846;25.950;2022-07-03T01:58:38;101394.09;;;26.53;50.16
20630;BME280;17386;43.846;25.950;2022-07-03T02:07:55;101399.94;;;26.38;50.76
20630;BME280;17386;43.846;25.950;2022-07-03T02:10:29;101399.03;;;26.28;51.13
20630;BME280;17386;43.846;25.950;2022-07-03T02:13:00;101397.63;;;26.24;50.83
20630;BME280;17386;43.846;25.950;2022-07-03T02:15:32;101400.34;;;26.24;51.07
20630;BME280;17386;43.846;25.950;2022-07-03T02:18:04;101398.47;;;26.25;51.27
20630;BME280;17386;43.846;25.950;2022-07-03T02:20:39;101401.50;;;26.22;51.66
20630;BME280;17386;43.846;25.950;2022-07-03T02:23:11;101405.06;;;26.22;51.55
20630;BME280;17386;43.846;25.950;2022-07-03T02:25:41;101397.41;;;26.06;52.51
20630;BME280;17386;43.846;25.950;2022-07-03T02:30:59;101399.28;;;26.06;52.87
20630;BME280;17386;43.846;25.950;2022-07-03T02:33:30;101399.88;;;26.09;52.87
20630;BME280;17386;43.846;25.950;2022-07-03T02:35:58;101407.59;;;26.14;53.52
20630;BME280;17386;43.846;25.950;2022-07-03T02:38:24;101401.03;;;26.16;54.01
20630;BME280;17386;43.846;25.950;2022-07-03T02:41:03;101411.50;;;26.21;53.82
20630;BME280;17386;43.846;25.950;2022-07-03T02:43:55;101414.97;;;26.23;54.23
20630;BME280;17386;43.846;25.950;2022-07-03T02:52:13;101421.72;;;26.29;54.08
20630;BME280;17386;43.846;25.950;2022-07-03T02:54:44;101415.25;;;26.30;54.34
20630;BME280;17386;43.846;25.950;2022-07-03T02:57:13;101422.69;;;26.28;54.70
20630;BME280;17386;43.846;25.950;2022-07-03T03:00:02;101416.38;;;26.27;55.71
20630;BME280;17386;43.846;25.950;2022-07-03T03:02:47;101417.25;;;26.28;56.13
20630;BME280;17386;43.846;25.950;2022-07-03T03:11:01;101426.97;;;26.21;58.43
20630;BME280;17386;43.846;25.950;2022-07-03T03:13:31;101429.84;;;26.19;58.32
20630;BME280;17386;43.846;25.950;2022-07-03T03:16:09;101431.63;;;25.99;58.87
20630;BME280;17386;43.846;25.950;2022-07-03T03:18:39;101439.56;;;26.02;58.60
20630;BME280;17386;43.846;25.950;2022-07-03T03:21:10;101432.25;;;26.03;58.27
20630;BME280;17386;43.846;25.950;2022-07-03T03:23:43;101432.38;;;26.01;58.26
20630;BME280;17386;43.846;25.950;2022-07-03T03:26:10;101437.09;;;25.99;58.55
20630;BME280;17386;43.846;25.950;2022-07-03T03:28:36;101437.53;;;25.95;58.96
20630;BME280;17386;43.846;25.950;2022-07-03T03:31:01;101446.22;;;25.88;59.33
20630;BME280;17386;43.846;25.950;2022-07-03T03:33:32;101435.72;;;25.74;60.34
20630;BME280;17386;43.846;25.950;2022-07-03T03:35:59;101433.50;;;25.68;61.00
20630;BME280;17386;43.846;25.950;2022-07-03T03:38:26;101440.66;;;25.69;60.80
20630;BME280;17386;43.846;25.950;2022-07-03T03:40:53;101446.09;;;25.69;61.22
20630;BME280;17386;43.846;25.950;2022-07-03T03:43:20;101436.22;;;25.68;61.08
20630;BME280;17386;43.846;25.950;2022-07-03T03:45:46;101443.63;;;25.66;61.40
20630;BME280;17386;43.846;25.950;2022-07-03T03:48:13;101444.91;;;25.62;61.72
20630;BME280;17386;43.846;25.950;2022-07-03T03:50:40;101446.31;;;25.56;62.79
20630;BME280;17386;43.846;25.950;2022-07-03T03:53:10;101441.81;;;25.46;63.79
20630;BME280;17386;43.846;25.950;2022-07-03T03:55:37;101445.13;;;25.49;63.88
20630;BME280;17386;43.846;25.950;2022-07-03T03:58:02;101449.19;;;25.55;63.73
20630;BME280;17386;43.846;25.950;2022-07-03T04:00:31;101440.59;;;25.59;63.60
20630;BME280;17386;43.846;25.950;2022-07-03T04:02:57;101437.16;;;25.57;63.80
20630;BME280;17386;43.846;25.950;2022-07-03T04:05:24;101446.94;;;25.60;63.65
20630;BME280;17386;43.846;25.950;2022-07-03T04:07:49;101446.50;;;25.64;63.54
20630;BME280;17386;43.846;25.950;2022-07-03T04:10:15;101456.00;;;25.70;63.26
20630;BME280;17386;43.846;25.950;2022-07-03T04:12:42;101457.19;;;25.77;62.81
20630;BME280;17386;43.846;25.950;2022-07-03T04:15:09;101458.44;;;25.73;62.31
20630;BME280;17386;43.846;25.950;2022-07-03T04:17:35;101457.13;;;25.68;62.43
20630;BME280;17386;43.846;25.950;2022-07-03T04:20:01;101448.69;;;25.71;62.55
20630;BME280;17386;43.846;25.950;2022-07-03T04:22:28;101458.19;;;25.76;61.01
20630;BME280;17386;43.846;25.950;2022-07-03T04:24:55;101456.66;;;25.83;60.00
20630;BME280;17386;43.846;25.950;2022-07-03T04:27:20;101462.56;;;25.88;59.24
20630;BME280;17386;43.846;25.950;2022-07-03T04:29:46;101468.44;;;25.94;58.51
20630;BME280;17386;43.846;25.950;2022-07-03T04:32:13;101458.84;;;25.89;58.21
20630;BME280;17386;43.846;25.950;2022-07-03T04:34:40;101462.59;;;25.98;57.91
20630;BME280;17386;43.846;25.950;2022-07-03T04:37:06;101462.66;;;26.08;57.59
20630;BME280;17386;43.846;25.950;2022-07-03T04:39:32;101465.09;;;26.11;57.48
20630;BME280;17386;43.846;25.950;2022-07-03T04:41:57;101463.22;;;26.11;57.11
20630;BME280;17386;43.846;25.950;2022-07-03T04:44:24;101464.69;;;26.15;57.07
20630;BME280;17386;43.846;25.950;2022-07-03T04:46:50;101464.25;;;26.20;56.95
20630;BME280;17386;43.846;25.950;2022-07-03T04:49:17;101468.69;;;26.21;56.95
20630;BME280;17386;43.846;25.950;2022-07-03T04:51:44;101468.13;;;26.27;57.61
20630;BME280;17386;43.846;25.950;2022-07-03T04:54:10;101469.84;;;26.28;57.58
20630;BME280;17386;43.846;25.950;2022-07-03T04:56:39;101466.47;;;26.36;58.05
20630;BME280;17386;43.846;25.950;2022-07-03T04:59:07;101466.50;;;26.45;58.65
20630;BME280;17386;43.846;25.950;2022-07-03T05:01:34;101461.19;;;26.54;58.45
20630;BME280;17386;43.846;25.950;2022-07-03T05:03:59;101462.91;;;26.55;59.47
20630;BME280;17386;43.846;25.950;2022-07-03T05:06:25;101463.53;;;26.58;60.50
20630;BME280;17386;43.846;25.950;2022-07-03T05:08:51;101461.09;;;26.65;61.17
20630;BME280;17386;43.846;25.950;2022-07-03T05:11:16;101478.00;;;26.68;61.57
20630;BME280;17386;43.846;25.950;2022-07-03T05:13:43;101468.13;;;26.77;61.77
20630;BME280;17386;43.846;25.950;2022-07-03T05:16:08;101478.19;;;26.86;62.41
20630;BME280;17386;43.846;25.950;2022-07-03T05:18:35;101475.44;;;26.96;61.90
20630;BME280;17386;43.846;25.950;2022-07-03T05:21:02;101476.19;;;26.98;62.38
20630;BME280;17386;43.846;25.950;2022-07-03T05:23:29;101472.75;;;27.06;61.94
20630;BME280;17386;43.846;25.950;2022-07-03T05:25:55;101479.63;;;27.10;62.14
20630;BME280;17386;43.846;25.950;2022-07-03T05:28:22;101481.50;;;27.09;62.47
20630;BME280;17386;43.846;25.950;2022-07-03T05:30:49;101469.47;;;27.12;63.09
20630;BME280;17386;43.846;25.950;2022-07-03T05:33:15;101466.00;;;27.19;63.03
20630;BME280;17386;43.846;25.950;2022-07-03T05:35:42;101481.94;;;27.14;63.20
20630;BME280;17386;43.846;25.950;2022-07-03T05:38:08;101480.94;;;27.25;63.48
20630;BME280;17386;43.846;25.950;2022-07-03T05:40:34;101484.06;;;27.30;62.61
20630;BME280;17386;43.846;25.950;2022-07-03T05:42:59;101476.03;;;27.38;62.79
20630;BME280;17386;43.846;25.950;2022-07-03T05:45:25;101479.75;;;27.47;62.73
20630;BME280;17386;43.846;25.950;2022-07-03T05:47:51;101489.63;;;27.58;63.60
20630;BME280;17386;43.846;25.950;2022-07-03T05:50:17;101489.34;;;27.61;63.27
20630;BME280;17386;43.846;25.950;2022-07-03T05:52:44;101492.50;;;27.56;63.27
20630;BME280;17386;43.846;25.950;2022-07-03T05:55:11;101496.38;;;27.63;63.34
20630;BME280;17386;43.846;25.950;2022-07-03T05:57:36;101494.53;;;27.73;64.20
20630;BME280;17386;43.846;25.950;2022-07-03T06:00:03;101497.25;;;27.73;64.59
20630;BME280;17386;43.846;25.950;2022-07-03T06:02:29;101501.84;;;27.73;65.49
20630;BME280;17386;43.846;25.950;2022-07-03T06:04:54;101489.34;;;27.61;65.03
20630;BME280;17386;43.846;25.950;2022-07-03T06:07:19;101495.88;;;27.21;66.33
20630;BME280;17386;43.846;25.950;2022-07-03T06:09:45;101501.47;;;27.39;65.95
20630;BME280;17386;43.846;25.950;2022-07-03T06:12:10;101493.38;;;27.57;66.23
20630;BME280;17386;43.846;25.950;2022-07-03T06:14:36;101495.97;;;27.68;65.00
20630;BME280;17386;43.846;25.950;2022-07-03T06:17:02;101495.25;;;27.56;65.39
20630;BME280;17386;43.846;25.950;2022-07-03T06:19:28;101504.00;;;27.60;65.56
20630;BME280;17386;43.846;25.950;2022-07-03T06:21:54;101501.84;;;27.73;65.00
20630;BME280;17386;43.846;25.950;2022-07-03T06:24:19;101498.78;;;27.86;64.80
20630;BME280;17386;43.846;25.950;2022-07-03T06:26:44;101493.44;;;27.94;64.87
20630;BME280;17386;43.846;25.950;2022-07-03T06:29:10;101496.13;;;28.03;64.70
20630;BME280;17386;43.846;25.950;2022-07-03T06:31:35;101497.09;;;28.12;64.78
20630;BME280;17386;43.846;25.950;2022-07-03T06:34:01;101490.75;;;28.21;64.71
20630;BME280;17386;43.846;25.950;2022-07-03T06:36:26;101487.53;;;28.36;63.16
20630;BME280;17386;43.846;25.950;2022-07-03T06:38:52;101497.09;;;28.49;62.97
20630;BME280;17386;43.846;25.950;2022-07-03T06:41:17;101492.41;;;28.59;61.69
20630;BME280;17386;43.846;25.950;2022-07-03T06:43:42;101490.84;;;28.57;61.93
20630;BME280;17386;43.846;25.950;2022-07-03T06:46:08;101486.16;;;28.67;62.34
20630;BME280;17386;43.846;25.950;2022-07-03T06:48:33;101484.41;;;28.76;62.18
20630;BME280;17386;43.846;25.950;2022-07-03T06:50:59;101489.72;;;28.77;62.21
20630;BME280;17386;43.846;25.950;2022-07-03T06:53:24;101482.78;;;28.83;62.27
20630;BME280;17386;43.846;25.950;2022-07-03T06:55:49;101481.25;;;28.88;61.94
20630;BME280;17386;43.846;25.950;2022-07-03T06:58:15;101485.13;;;28.96;61.86
20630;BME280;17386;43.846;25.950;2022-07-03T07:00:41;101483.72;;;28.92;61.17
20630;BME280;17386;43.846;25.950;2022-07-03T07:03:09;101480.28;;;28.89;61.42
20630;BME280;17386;43.846;25.950;2022-07-03T07:05:36;101485.91;;;29.06;61.06
20630;BME280;17386;43.846;25.950;2022-07-03T07:08:03;101483.47;;;29.03;61.15
20630;BME280;17386;43.846;25.950;2022-07-03T07:10:29;101476.66;;;28.89;61.68
20630;BME280;17386;43.846;25.950;2022-07-03T07:12:56;101480.31;;;28.80;62.23
20630;BME280;17386;43.846;25.950;2022-07-03T07:15:23;101486.13;;;28.95;61.93
20630;BME280;17386;43.846;25.950;2022-07-03T07:17:49;101476.59;;;29.16;61.05
20630;BME280;17386;43.846;25.950;2022-07-03T07:20:15;101483.88;;;29.26;60.37
20630;BME280;17386;43.846;25.950;2022-07-03T07:22:40;101486.41;;;29.45;60.13
20630;BME280;17386;43.846;25.950;2022-07-03T07:25:07;101483.13;;;29.59;59.51
20630;BME280;17386;43.846;25.950;2022-07-03T07:27:34;101480.34;;;29.51;60.10
20630;BME280;17386;43.846;25.950;2022-07-03T07:30:00;101475.13;;;29.48;61.18
20630;BME280;17386;43.846;25.950;2022-07-03T07:32:27;101478.28;;;29.53;60.16
20630;BME280;17386;43.846;25.950;2022-07-03T07:34:55;101481.94;;;29.62;60.04
20630;BME280;17386;43.846;25.950;2022-07-03T07:37:20;101481.13;;;29.69;59.83
20630;BME280;17386;43.846;25.950;2022-07-03T07:39:50;101471.97;;;29.79;59.46
20630;BME280;17386;43.846;25.950;2022-07-03T07:42:18;101476.34;;;29.72;59.25
20630;BME280;17386;43.846;25.950;2022-07-03T07:44:45;101482.50;;;29.65;59.06
20630;BME280;17386;43.846;25.950;2022-07-03T07:47:12;101476.69;;;29.68;58.63
20630;BME280;17386;43.846;25.950;2022-07-03T07:49:39;101477.78;;;29.84;58.23
20630;BME280;17386;43.846;25.950;2022-07-03T07:52:06;101479.78;;;30.00;58.66
20630;BME280;17386;43.846;25.950;2022-07-03T07:54:32;101480.94;;;29.97;58.08
20630;BME280;17386;43.846;25.950;2022-07-03T07:56:59;101480.94;;;29.97;57.37
20630;BME280;17386;43.846;25.950;2022-07-03T07:59:26;101483.88;;;30.04;56.51
20630;BME280;17386;43.846;25.950;2022-07-03T08:01:53;101476.00;;;30.27;56.40
20630;BME280;17386;43.846;25.950;2022-07-03T08:04:39;101481.88;;;30.48;56.66
20630;BME280;17386;43.846;25.950;2022-07-03T08:07:24;101476.47;;;30.72;55.47
20630;BME280;17386;43.846;25.950;2022-07-03T08:09:51;101477.53;;;30.88;54.36
20630;BME280;17386;43.846;25.950;2022-07-03T08:12:19;101476.00;;;30.93;55.18
20630;BME280;17386;43.846;25.950;2022-07-03T08:14:46;101475.31;;;30.99;54.44
20630;BME280;17386;43.846;25.950;2022-07-03T08:17:13;101483.38;;;31.01;50.11
20630;BME280;17386;43.846;25.950;2022-07-03T08:19:40;101486.97;;;30.85;45.65
20630;BME280;17386;43.846;25.950;2022-07-03T08:22:07;101483.38;;;30.85;45.13
20630;BME280;17386;43.846;25.950;2022-07-03T08:24:34;101484.03;;;30.78;50.91
20630;BME280;17386;43.846;25.950;2022-07-03T08:27:00;101484.19;;;30.69;50.47
20630;BME280;17386;43.846;25.950;2022-07-03T08:29:27;101489.22;;;30.82;50.76
20630;BME280;17386;43.846;25.950;2022-07-03T08:31:54;101477.03;;;30.92;50.68
20630;BME280;17386;43.846;25.950;2022-07-03T08:34:20;101483.22;;;31.02;50.57
20630;BME280;17386;43.846;25.950;2022-07-03T08:36:47;101484.94;;;31.03;49.15
20630;BME280;17386;43.846;25.950;2022-07-03T08:39:13;101489.03;;;31.16;49.44
20630;BME280;17386;43.846;25.950;2022-07-03T08:41:41;101480.97;;;31.22;48.87
20630;BME280;17386;43.846;25.950;2022-07-03T08:44:09;101480.19;;;31.30;47.81
20630;BME280;17386;43.846;25.950;2022-07-03T08:46:37;101487.38;;;31.31;47.56
20630;BME280;17386;43.846;25.950;2022-07-03T08:49:08;101483.22;;;31.35;46.60
20630;BME280;17386;43.846;25.950;2022-07-03T08:51:35;101488.59;;;31.37;45.65
20630;BME280;17386;43.846;25.950;2022-07-03T08:54:04;101487.38;;;31.39;44.71
20630;BME280;17386;43.846;25.950;2022-07-03T08:56:35;101495.41;;;31.49;43.98
20630;BME280;17386;43.846;25.950;2022-07-03T08:59:03;101492.69;;;31.57;43.55
20630;BME280;17386;43.846;25.950;2022-07-03T09:01:32;101496.94;;;31.68;43.10
20630;BME280;17386;43.846;25.950;2022-07-03T09:04:08;101496.91;;;31.76;43.60
20630;BME280;17386;43.846;25.950;2022-07-03T09:06:45;101491.59;;;31.74;42.86
20630;BME280;17386;43.846;25.950;2022-07-03T09:09:11;101492.66;;;31.81;43.27
20630;BME280;17386;43.846;25.950;2022-07-03T09:11:39;101496.75;;;31.94;43.85
20630;BME280;17386;43.846;25.950;2022-07-03T09:14:05;101494.69;;;31.88;43.78
20630;BME280;17386;43.846;25.950;2022-07-03T09:16:36;101493.66;;;31.72;43.50
20630;BME280;17386;43.846;25.950;2022-07-03T09:19:03;101500.22;;;31.79;43.80
20630;BME280;17386;43.846;25.950;2022-07-03T09:21:42;101498.97;;;31.74;44.16
20630;BME280;17386;43.846;25.950;2022-07-03T09:24:10;101491.59;;;31.74;44.59
20630;BME280;17386;43.846;25.950;2022-07-03T09:26:50;101495.75;;;31.78;44.98
20630;BME280;17386;43.846;25.950;2022-07-03T09:29:17;101498.13;;;31.81;46.33
20630;BME280;17386;43.846;25.950;2022-07-03T09:31:56;101499.19;;;31.80;45.85
20630;BME280;17386;43.846;25.950;2022-07-03T09:34:23;101489.88;;;31.73;45.75
20630;BME280;17386;43.846;25.950;2022-07-03T09:36:52;101499.16;;;31.72;44.33
20630;BME280;17386;43.846;25.950;2022-07-03T09:39:29;101497.63;;;31.62;44.13
20630;BME280;17386;43.846;25.950;2022-07-03T09:42:08;101498.34;;;31.47;46.15
20630;BME280;17386;43.846;25.950;2022-07-03T09:44:44;101499.34;;;31.54;46.96
20630;BME280;17386;43.846;25.950;2022-07-03T09:47:23;101504.34;;;31.51;46.79
20630;BME280;17386;43.846;25.950;2022-07-03T09:50:02;101499.53;;;31.53;46.71
20630;BME280;17386;43.846;25.950;2022-07-03T09:52:47;101497.81;;;31.52;47.26
20630;BME280;17386;43.846;25.950;2022-07-03T09:55:19;101490.78;;;31.49;47.46
20630;BME280;17386;43.846;25.950;2022-07-03T09:58:06;101488.22;;;31.48;48.32
20630;BME280;17386;43.846;25.950;2022-07-03T10:00:34;101480.31;;;31.45;51.29
20630;BME280;17386;43.846;25.950;2022-07-03T10:03:04;101478.41;;;31.13;53.46
20630;BME280;17386;43.846;25.950;2022-07-03T10:05:43;101477.69;;;30.86;54.43
20630;BME280;17386;43.846;25.950;2022-07-03T10:08:14;101474.78;;;30.88;54.86
20630;BME280;17386;43.846;25.950;2022-07-03T10:10:47;101482.00;;;30.89;54.79
20630;BME280;17386;43.846;25.950;2022-07-03T10:13:15;101477.03;;;30.84;54.43
20630;BME280;17386;43.846;25.950;2022-07-03T10:15:43;101477.34;;;30.81;54.84
20630;BME280;17386;43.846;25.950;2022-07-03T10:18:11;101473.91;;;30.79;54.80
20630;BME280;17386;43.846;25.950;2022-07-03T10:20:47;101473.41;;;30.75;54.72
20630;BME280;17386;43.846;25.950;2022-07-03T10:23:21;101472.03;;;30.80;54.37
20630;BME280;17386;43.846;25.950;2022-07-03T10:25:49;101474.28;;;30.76;54.01
20630;BME280;17386;43.846;25.950;2022-07-03T10:28:19;101462.94;;;30.79;53.83
20630;BME280;17386;43.846;25.950;2022-07-03T10:30:52;101459.88;;;30.82;54.01
20630;BME280;17386;43.846;25.950;2022-07-03T10:33:18;101454.91;;;30.86;53.57
20630;BME280;17386;43.846;25.950;2022-07-03T10:35:52;101454.41;;;30.98;52.13
20630;BME280;17386;43.846;25.950;2022-07-03T10:41:12;101443.78;;;31.28;50.67
20630;BME280;17386;43.846;25.950;2022-07-03T10:43:58;101431.88;;;31.68;46.07
20630;BME280;17386;43.846;25.950;2022-07-03T10:46:44;101436.97;;;32.35;44.15
20630;BME280;17386;43.846;25.950;2022-07-03T10:49:11;101444.84;;;32.69;43.34
20630;BME280;17386;43.846;25.950;2022-07-03T10:51:57;101441.88;;;33.02;41.87
20630;BME280;17386;43.846;25.950;2022-07-03T10:54:49;101438.25;;;32.78;41.50
20630;BME280;17386;43.846;25.950;2022-07-03T10:57:17;101436.00;;;32.82;41.74
20630;BME280;17386;43.846;25.950;2022-07-03T11:05:36;101431.50;;;32.89;43.93
20630;BME280;17386;43.846;25.950;2022-07-03T11:08:05;101428.75;;;32.89;43.13
20630;BME280;17386;43.846;25.950;2022-07-03T11:10:34;101421.25;;;32.98;42.23
20630;BME280;17386;43.846;25.950;2022-07-03T11:15:54;101413.09;;;32.89;43.04
20630;BME280;17386;43.846;25.950;2022-07-03T11:23:40;101412.69;;;32.70;42.40
20630;BME280;17386;43.846;25.950;2022-07-03T11:36:33;101408.47;;;32.82;40.32
20630;BME280;17386;43.846;25.950;2022-07-03T11:39:04;101400.66;;;32.93;40.20
20630;BME280;17386;43.846;25.950;2022-07-03T11:44:08;101398.19;;;32.76;41.01
20630;BME280;17386;43.846;25.950;2022-07-03T11:46:39;101391.53;;;32.70;40.08
20630;BME280;17386;43.846;25.950;2022-07-03T11:49:15;101390.56;;;32.63;40.63
20630;BME280;17386;43.846;25.950;2022-07-03T11:51:52;101384.31;;;32.46;42.14
20630;BME280;17386;43.846;25.950;2022-07-03T11:54:19;101391.13;;;32.27;43.47
20630;BME280;17386;43.846;25.950;2022-07-03T11:56:46;101373.56;;;32.05;44.17
20630;BME280;17386;43.846;25.950;2022-07-03T11:59:11;101373.41;;;31.99;44.61
20630;BME280;17386;43.846;25.950;2022-07-03T12:01:38;101372.91;;;31.95;43.73
20630;BME280;17386;43.846;25.950;2022-07-03T12:04:15;101373.56;;;31.97;43.83
20630;BME280;17386;43.846;25.950;2022-07-03T12:06:51;101374.78;;;31.95;43.63
20630;BME280;17386;43.846;25.950;2022-07-03T12:09:33;101366.03;;;31.99;43.15
20630;BME280;17386;43.846;25.950;2022-07-03T12:12:07;101368.66;;;32.16;43.49
20630;BME280;17386;43.846;25.950;2022-07-03T12:14:48;101360.38;;;32.24;43.29
20630;BME280;17386;43.846;25.950;2022-07-03T12:17:19;101355.38;;;32.27;43.74
20630;BME280;17386;43.846;25.950;2022-07-03T12:19:53;101350.53;;;32.29;43.37
20630;BME280;17386;43.846;25.950;2022-07-03T12:22:31;101351.41;;;32.30;42.81
20630;BME280;17386;43.846;25.950;2022-07-03T12:25:05;101346.19;;;32.43;43.49
20630;BME280;17386;43.846;25.950;2022-07-03T12:27:42;101345.06;;;32.52;43.33
20630;BME280;17386;43.846;25.950;2022-07-03T12:30:12;101342.41;;;32.67;42.79
20630;BME280;17386;43.846;25.950;2022-07-03T12:32:44;101336.09;;;32.81;42.44
20630;BME280;17386;43.846;25.950;2022-07-03T12:35:12;101325.31;;;32.95;41.62
20630;BME280;17386;43.846;25.950;2022-07-03T12:37:41;101330.44;;;32.98;41.22
20630;BME280;17386;43.846;25.950;2022-07-03T12:40:10;101327.19;;;32.94;40.76
20630;BME280;17386;43.846;25.950;2022-07-03T12:42:48;101323.63;;;32.85;41.10
20630;BME280;17386;43.846;25.950;2022-07-03T12:45:20;101326.97;;;32.81;40.93
20630;BME280;17386;43.846;25.950;2022-07-03T12:47:57;101333.94;;;32.91;41.65
20630;BME280;17386;43.846;25.950;2022-07-03T12:50:23;101324.84;;;33.06;40.79
20630;BME280;17386;43.846;25.950;2022-07-03T12:52:50;101317.84;;;33.18;40.52
20630;BME280;17386;43.846;25.950;2022-07-03T12:55:26;101321.16;;;33.28;38.55
20630;BME280;17386;43.846;25.950;2022-07-03T12:58:14;101309.88;;;33.38;37.74
20630;BME280;17386;43.846;25.950;2022-07-03T13:01:01;101298.97;;;33.59;37.68
20630;BME280;17386;43.846;25.950;2022-07-03T13:03:34;101308.63;;;33.85;36.95
20630;BME280;17386;43.846;25.950;2022-07-03T13:06:01;101304.50;;;33.95;36.67
20630;BME280;17386;43.846;25.950;2022-07-03T13:08:28;101302.97;;;34.08;36.46
20630;BME280;17386;43.846;25.950;2022-07-03T13:10:56;101293.91;;;34.14;36.54
20630;BME280;17386;43.846;25.950;2022-07-03T13:13:24;101290.44;;;34.26;36.51
20630;BME280;17386;43.846;25.950;2022-07-03T13:15:51;101266.84;;;34.24;36.35
20630;BME280;17386;43.846;25.950;2022-07-03T13:18:18;101293.34;;;34.18;37.34
20630;BME280;17386;43.846;25.950;2022-07-03T13:20:45;101289.66;;;34.33;35.80
20630;BME280;17386;43.846;25.950;2022-07-03T13:23:10;101282.75;;;34.43;34.99
20630;BME280;17386;43.846;25.950;2022-07-03T13:25:38;101287.91;;;34.46;34.11
20630;BME280;17386;43.846;25.950;2022-07-03T13:28:14;101276.13;;;34.59;34.05
20630;BME280;17386;43.846;25.950;2022-07-03T13:30:41;101271.31;;;34.68;33.81
20630;BME280;17386;43.846;25.950;2022-07-03T13:33:09;101267.25;;;34.64;33.76
20630;BME280;17386;43.846;25.950;2022-07-03T13:35:35;101260.28;;;34.68;33.61
20630;BME280;17386;43.846;25.950;2022-07-03T13:38:03;101255.19;;;34.71;33.83
20630;BME280;17386;43.846;25.950;2022-07-03T13:40:30;101260.34;;;34.74;33.16
20630;BME280;17386;43.846;25.950;2022-07-03T13:42:57;101255.97;;;34.87;33.11
20630;BME280;17386;43.846;25.950;2022-07-03T13:45:24;101264.16;;;35.01;32.36
20630;BME280;17386;43.846;25.950;2022-07-03T13:47:50;101248.31;;;35.17;31.81
20630;BME280;17386;43.846;25.950;2022-07-03T13:50:16;101260.66;;;35.55;31.74
20630;BME280;17386;43.846;25.950;2022-07-03T13:52:43;101261.09;;;35.66;31.64